Time;durP1;ratioP1;P1;durP2;ratioP2;P2;SDS_P1;SDS_P2;PMS_P1;PMS_P2;Temp;Humidity;BMP_temperature;BMP_pressure;BME280_temperature;BME280_humidity;BME280_pressure;Samples;Min_cycle;Max_cycle;Signal;HPM_P1;HPM_P2
2023/07/16 00:00:26;;;;;;;6.50;4.80;;;;;;;19.31;59.17;99987.52;107181;1254;69058;-77
2023/07/16 00:02:53;;;;;;;7.00;4.80;;;;;;;19.27;59.42;99984.84;107225;1251;72777;-78
2023/07/16 00:05:21;;;;;;;8.60;5.30;;;;;;;19.24;59.34;99986.70;106995;1251;60412;-78
2023/07/16 00:07:48;;;;;;;9.00;5.30;;;;;;;19.20;59.31;99988.95;106694;1251;60438;-77
2023/07/16 00:10:16;;;;;;;6.10;5.40;;;;;;;19.20;59.21;99989.08;106401;1251;73799;-76
2023/07/16 00:12:43;;;;;;;6.80;4.90;;;;;;;19.18;59.30;99992.33;106541;1256;70306;-75
2023/07/16 00:15:10;;;;;;;7.30;5.30;;;;;;;19.16;59.24;99993.38;106631;1255;70215;-77
2023/07/16 00:17:36;;;;;;;7.50;4.70;;;;;;;19.14;59.45;99993.23;106997;1251;60501;-77
2023/07/16 00:20:05;;;;;;;7.80;5.20;;;;;;;19.13;59.53;99991.83;108277;1251;59285;-76
2023/07/16 00:22:33;;;;;;;7.40;5.00;;;;;;;19.12;59.63;99994.27;109638;1251;72468;-78
2023/07/16 00:25:00;;;;;;;8.90;5.40;;;;;;;19.12;59.81;99990.13;109493;1251;68754;-77
2023/07/16 00:27:28;;;;;;;5.50;4.70;;;;;;;19.13;60.05;99989.77;107932;1251;71392;-77
2023/07/16 00:29:54;;;;;;;6.10;5.20;;;;;;;19.12;60.22;99991.36;106482;1251;60558;-76
2023/07/16 00:32:21;;;;;;;7.70;5.30;;;;;;;19.09;60.08;99988.42;107125;1251;60431;-76
2023/07/16 00:34:48;;;;;;;7.30;5.00;;;;;;;19.07;60.11;99987.64;106874;1256;73776;-75
2023/07/16 00:37:15;;;;;;;5.20;4.60;;;;;;;19.04;60.19;99987.12;108893;1251;70051;-76
2023/07/16 00:39:44;;;;;;;6.90;5.00;;;;;;;19.02;60.01;99986.34;109578;1251;71106;-75
2023/07/16 00:42:10;;;;;;;7.00;4.90;;;;;;;19.00;59.87;99987.14;108919;1251;60443;-75
2023/07/16 00:44:37;;;;;;;8.10;5.50;;;;;;;18.99;59.86;99986.38;109018;1251;60256;-75
2023/07/16 00:47:04;;;;;;;8.60;5.20;;;;;;;18.98;59.86;99985.09;109430;1251;72555;-77
2023/07/16 00:49:36;;;;;;;7.60;5.40;;;;;;;18.96;59.68;99985.73;109656;1250;68862;-76
2023/07/16 00:52:03;;;;;;;9.00;5.20;;;;;;;18.95;59.73;99981.92;109671;1251;71045;-77
2023/07/16 00:54:30;;;;;;;5.70;4.90;;;;;;;18.94;59.77;99981.43;109694;1251;59028;-77
2023/07/16 00:56:57;;;;;;;7.90;4.90;;;;;;;18.92;59.86;99986.12;109576;1251;58940;-76
2023/07/16 00:59:24;;;;;;;5.70;4.50;;;;;;;18.91;59.77;99982.16;109497;1251;72337;-77
2023/07/16 01:01:50;;;;;;;5.90;4.80;;;;;;;18.90;59.75;99983.70;109399;1251;67901;-77
2023/07/16 01:04:17;;;;;;;6.40;5.00;;;;;;;18.89;59.78;99985.66;109644;1251;70820;-79
2023/07/16 01:06:49;;;;;;;6.00;4.60;;;;;;;18.89;59.85;99984.79;109057;1251;57993;-75
2023/07/16 01:09:17;;;;;;;5.40;4.90;;;;;;;18.88;60.05;99983.34;109433;1254;59393;-77
2023/07/16 01:11:45;;;;;;;5.80;4.60;;;;;;;18.87;60.11;99988.09;109587;1251;72554;-78
2023/07/16 01:14:17;;;;;;;6.40;4.70;;;;;;;18.84;60.17;99986.84;109503;1253;68846;-76
2023/07/16 01:16:44;;;;;;;7.00;5.00;;;;;;;18.83;60.39;99988.16;109640;1253;71209;-77
2023/07/16 01:19:13;;;;;;;7.10;5.30;;;;;;;18.80;60.63;99982.80;109668;1251;60157;-77
2023/07/16 01:22:18;;;;;;;4.50;4.00;;;;;;;18.78;60.36;99980.80;109351;1253;60533;-75
2023/07/16 01:24:51;;;;;;;6.20;4.80;;;;;;;18.75;60.23;99981.94;109196;1252;72582;-75
2023/07/16 01:27:48;;;;;;;6.40;4.70;;;;;;;18.72;60.09;99978.52;109136;1252;69189;-76
2023/07/16 01:30:15;;;;;;;6.90;5.10;;;;;;;18.71;59.95;99981.70;109452;1251;71225;-73
2023/07/16 01:32:42;;;;;;;5.10;4.30;;;;;;;18.71;59.80;99981.33;109342;1251;58931;-76
2023/07/16 01:35:09;;;;;;;7.70;5.00;;;;;;;18.72;59.75;99979.47;107824;1251;59292;-74
2023/07/16 01:37:36;;;;;;;7.20;4.20;;;;;;;18.73;59.82;99982.36;106224;1256;74694;-77
2023/07/16 01:40:03;;;;;;;5.40;4.80;;;;;;;18.73;59.71;99984.55;105978;1254;70209;-76
2023/07/16 01:42:30;;;;;;;6.40;4.40;;;;;;;18.71;59.66;99984.89;106000;1251;72802;-76
2023/07/16 01:44:57;;;;;;;5.70;4.50;;;;;;;18.70;59.80;99985.30;106045;1251;60415;-77
2023/07/16 01:47:26;;;;;;;7.90;4.60;;;;;;;18.68;59.80;99986.06;105677;1251;60495;-78
2023/07/16 01:49:53;;;;;;;5.30;4.10;;;;;;;18.66;59.78;99985.09;106052;1256;73723;-76
2023/07/16 01:52:20;;;;;;;5.20;4.50;;;;;;;18.64;59.96;99986.20;108300;1251;70810;-76
2023/07/16 01:54:47;;;;;;;6.60;4.20;;;;;;;18.62;60.12;99986.35;107801;1251;72175;-76
2023/07/16 01:57:14;;;;;;;8.30;4.70;;;;;;;18.62;60.19;99985.27;107422;1251;60455;-77
2023/07/16 01:59:41;;;;;;;4.90;4.30;;;;;;;18.61;60.34;99983.73;106179;1256;60530;-78
2023/07/16 02:02:08;;;;;;;8.40;4.90;;;;;;;18.60;60.90;99983.83;106133;1251;73672;-77
2023/07/16 02:04:34;;;;;;;5.30;4.80;;;;;;;18.58;61.22;99983.22;106109;1251;70381;-76
2023/07/16 02:07:01;;;;;;;6.00;4.60;;;;;;;18.55;61.53;99983.36;105873;1254;72687;-78
2023/07/16 02:09:28;;;;;;;8.70;4.90;;;;;;;18.52;61.66;99982.91;106059;1258;60460;-79
2023/07/16 02:11:56;;;;;;;4.90;4.20;;;;;;;18.50;61.91;99980.77;106008;1251;60514;-78
2023/07/16 02:14:22;;;;;;;6.40;4.60;;;;;;;18.47;62.21;99984.02;107041;1256;73873;-76
2023/07/16 02:16:50;;;;;;;6.70;4.60;;;;;;;18.43;62.44;99984.27;106426;1258;68759;-80
2023/07/16 02:19:17;;;;;;;4.70;4.30;;;;;;;18.41;62.95;99986.07;106797;1256;72556;-76
2023/07/16 02:21:44;;;;;;;7.20;4.80;;;;;;;18.38;63.25;99987.73;106644;1251;60459;-76
2023/07/16 02:24:11;;;;;;;6.60;4.80;;;;;;;18.35;63.41;99986.42;107593;1251;60431;-77
2023/07/16 02:26:39;;;;;;;8.30;5.20;;;;;;;18.31;63.62;99990.20;108501;1251;72546;-77
2023/07/16 02:29:08;;;;;;;5.70;4.20;;;;;;;18.25;63.79;99985.39;105993;1251;70872;-77
2023/07/16 02:31:36;;;;;;;5.90;4.50;;;;;;;18.22;64.00;99987.46;106077;1251;72627;-76
2023/07/16 02:34:03;;;;;;;5.50;4.20;;;;;;;18.20;64.00;99989.38;106073;1252;60453;-78
2023/07/16 02:36:33;;;;;;;6.50;4.50;;;;;;;18.20;62.87;99986.52;105776;1251;60796;-77
2023/07/16 02:39:00;;;;;;;4.30;3.90;;;;;;;18.22;62.22;99987.46;106038;1251;71687;-77
2023/07/16 02:41:27;;;;;;;6.90;4.70;;;;;;;18.24;61.95;99984.40;105798;1251;70279;-77
2023/07/16 02:44:05;;;;;;;5.10;4.60;;;;;;;18.27;62.24;99985.80;105840;1251;73304;-78
2023/07/16 02:46:32;;;;;;;7.60;5.10;;;;;;;18.28;62.35;99984.92;106119;1251;60425;-75
2023/07/16 02:49:00;;;;;;;5.20;4.40;;;;;;;18.29;62.45;99986.86;105880;1255;60494;-78
2023/07/16 02:51:26;;;;;;;7.10;4.00;;;;;;;18.28;62.52;99987.77;106354;1251;74513;-75
2023/07/16 02:53:53;;;;;;;6.70;4.40;;;;;;;18.28;62.69;99986.91;107508;1251;60885;-77
2023/07/16 02:56:20;;;;;;;8.30;4.40;;;;;;;18.28;62.63;99990.51;108650;1251;71466;-77
2023/07/16 02:58:47;;;;;;;4.60;4.10;;;;;;;18.31;62.54;99992.54;105998;1258;60450;-75
2023/07/16 03:01:15;;;;;;;6.90;4.20;;;;;;;18.33;62.25;99991.33;105903;1251;60339;-75
2023/07/16 03:03:41;;;;;;;5.10;4.10;;;;;;;18.35;61.99;99989.45;105728;1254;72702;-75
2023/07/16 03:06:09;;;;;;;8.10;4.10;;;;;;;18.36;61.81;99988.54;106817;1254;70962;-76
2023/07/16 03:08:36;;;;;;;7.60;4.30;;;;;;;18.39;62.13;99992.79;107531;1251;71222;-74
2023/07/16 03:11:04;;;;;;;7.90;4.30;;;;;;;18.43;62.37;99990.78;107028;1252;60423;-77
2023/07/16 03:13:31;;;;;;;5.80;4.00;;;;;;;18.49;62.45;99993.12;106102;1251;60530;-78
2023/07/16 03:15:58;;;;;;;5.00;3.80;;;;;;;18.52;62.43;99995.66;106171;1255;73915;-78
2023/07/16 03:18:29;;;;;;;7.80;3.90;;;;;;;18.56;62.13;99993.70;105947;1254;70274;-75
2023/07/16 03:20:57;;;;;;;4.90;4.20;;;;;;;18.60;62.14;99997.12;106548;1254;71459;-76
2023/07/16 03:23:25;;;;;;;5.70;4.20;;;;;;;18.64;62.29;99997.77;107437;1253;60621;-76
2023/07/16 03:25:52;;;;;;;9.30;4.50;;;;;;;18.69;63.05;99999.06;108137;1254;60501;-74
2023/07/16 03:28:20;;;;;;;7.60;4.60;;;;;;;18.72;63.33;99997.98;105876;1254;351825;-76
2023/07/16 03:32:09;;;;;;;5.50;4.70;;;;;;;18.79;63.50;99997.44;102590;1293;600856;-76
2023/07/16 03:34:37;;;;;;;5.70;4.40;;;;;;;18.81;63.79;99997.33;105005;1269;60049;-75
2023/07/16 03:37:04;;;;;;;7.40;4.40;;;;;;;18.86;63.82;99999.58;104627;1273;60071;-75
2023/07/16 03:39:32;;;;;;;6.80;4.20;;;;;;;18.90;63.78;100003.66;104662;1270;70888;-76
2023/07/16 03:42:00;;;;;;;8.40;4.70;;;;;;;18.94;63.78;100002.55;104744;1274;69084;-78
2023/07/16 03:44:29;;;;;;;5.10;4.00;;;;;;;18.99;63.68;100003.80;104970;1272;71625;-78
2023/07/16 03:46:57;;;;;;;7.60;4.10;;;;;;;19.05;63.25;100005.67;105147;1269;165752;-77
2023/07/16 03:49:25;;;;;;;5.00;4.10;;;;;;;19.12;62.47;100002.35;105232;1265;59100;-77
2023/07/16 03:51:52;;;;;;;7.60;4.20;;;;;;;19.20;61.87;100003.24;107272;1265;72303;-77
2023/07/16 03:54:20;;;;;;;7.90;4.10;;;;;;;19.28;61.31;100005.63;107781;1265;70060;-78
2023/07/16 03:56:47;;;;;;;5.60;4.20;;;;;;;19.37;61.19;100006.56;107402;1270;71258;-80
2023/07/16 03:59:15;;;;;;;7.30;4.60;;;;;;;19.45;60.83;100005.38;105112;1266;59995;-77
2023/07/16 04:01:42;;;;;;;4.40;4.00;;;;;;;19.53;60.99;100007.63;105039;1265;59797;-78
2023/07/16 04:04:10;;;;;;;5.80;3.70;;;;;;;19.61;60.99;100009.02;104896;1266;73047;-76
2023/07/16 04:06:38;;;;;;;6.00;4.90;;;;;;;19.70;61.06;100008.48;104699;1272;69257;-77
2023/07/16 04:09:06;;;;;;;5.70;4.40;;;;;;;19.79;60.92;100008.05;105131;1270;73118;-76
2023/07/16 04:11:33;;;;;;;4.90;4.40;;;;;;;19.88;60.78;100008.09;105508;1260;59568;-80
2023/07/16 04:14:01;;;;;;;6.20;4.40;;;;;;;19.96;60.65;100011.31;105397;1260;59996;-77
2023/07/16 04:16:28;;;;;;;8.50;4.30;;;;;;;20.05;60.36;100010.78;105669;1256;73271;-78
2023/07/16 04:18:56;;;;;;;5.10;4.30;;;;;;;20.14;60.24;100011.67;105689;1256;70311;-77
2023/07/16 04:21:23;;;;;;;8.50;3.90;;;;;;;20.23;60.37;100011.86;105830;1260;71054;-75
2023/07/16 04:23:51;;;;;;;7.50;4.20;;;;;;;20.33;60.43;100017.85;107214;1261;60106;-76
2023/07/16 04:26:19;;;;;;;7.60;4.10;;;;;;;20.43;60.32;100019.77;108934;1254;59482;-78
2023/07/16 04:28:46;;;;;;;4.80;4.30;;;;;;;20.56;60.48;100019.20;106716;1258;72042;-81
2023/07/16 04:31:14;;;;;;;5.40;4.10;;;;;;;20.70;60.15;100020.04;106025;1256;68883;-79
2023/07/16 04:33:41;;;;;;;7.50;3.70;;;;;;;20.86;59.14;100022.10;106589;1255;72671;-77
2023/07/16 04:36:09;;;;;;;6.00;3.40;;;;;;;21.03;58.90;100025.36;107449;1254;59653;-77
2023/07/16 04:38:36;;;;;;;6.70;4.30;;;;;;;21.24;59.05;100025.30;106065;1256;60033;-80
2023/07/16 04:41:05;;;;;;;4.60;3.80;;;;;;;21.45;58.86;100019.46;105859;1260;71588;-76
2023/07/16 04:43:32;;;;;;;7.00;4.30;;;;;;;21.66;58.25;100024.04;106964;1256;68697;-80
2023/07/16 04:46:00;;;;;;;5.90;3.80;;;;;;;21.84;57.89;100025.17;106256;1256;70998;-78
2023/07/16 04:48:27;;;;;;;7.60;3.80;;;;;;;22.02;57.45;100030.17;106264;1258;59523;-80
2023/07/16 04:50:55;;;;;;;6.60;3.70;;;;;;;22.18;57.03;100032.39;106576;1254;59570;-79
2023/07/16 04:53:22;;;;;;;5.20;4.00;;;;;;;22.31;56.51;100032.77;108989;1254;72016;-78
2023/07/16 04:55:50;;;;;;;4.40;3.90;;;;;;;22.42;56.14;100035.59;109285;1254;69040;-76
2023/07/16 04:58:18;;;;;;;4.70;4.10;;;;;;;22.51;55.97;100034.05;107787;1256;71368;-76
2023/07/16 05:00:45;;;;;;;8.30;3.40;;;;;;;22.59;55.62;100033.62;108576;1258;58790;-78
2023/07/16 05:03:13;;;;;;;4.40;3.40;;;;;;;22.65;55.25;100026.89;106523;1256;59984;-78
2023/07/16 05:05:40;;;;;;;6.60;4.00;;;;;;;22.67;55.05;100032.89;105958;1254;71016;-77
2023/07/16 05:08:08;;;;;;;3.80;3.40;;;;;;;22.73;55.24;100036.50;105962;1256;69586;-79
2023/07/16 05:10:36;;;;;;;5.60;4.10;;;;;;;22.84;55.64;100035.98;105753;1260;73199;-77
2023/07/16 05:13:03;;;;;;;6.40;4.10;;;;;;;22.94;54.62;100038.12;105800;1260;59653;-80
2023/07/16 05:15:34;;;;;;;3.90;3.40;;;;;;;23.03;54.34;100038.86;106007;1256;59636;-80
2023/07/16 05:18:01;;;;;;;4.40;3.70;;;;;;;23.16;54.13;100038.58;106063;1256;72016;-79
2023/07/16 05:20:29;;;;;;;4.20;3.80;;;;;;;23.43;53.79;100036.47;105993;1256;70324;-81
2023/07/16 05:22:56;;;;;;;7.80;3.80;;;;;;;23.74;53.48;100038.65;106598;1256;72749;-80
2023/07/16 05:25:24;;;;;;;4.70;3.70;;;;;;;23.97;53.23;100041.23;109079;1258;59120;-80
2023/07/16 05:27:52;;;;;;;4.60;4.20;;;;;;;24.16;52.83;100040.02;107275;1254;59551;-79
2023/07/16 05:30:19;;;;;;;5.70;4.80;;;;;;;24.29;52.66;100046.34;105931;1260;73070;-81
2023/07/16 05:32:47;;;;;;;5.60;4.60;;;;;;;24.36;52.51;100044.70;106182;1259;70317;-80
2023/07/16 05:35:14;;;;;;;5.60;4.40;;;;;;;24.41;52.21;100048.45;107521;1254;71396;-81
2023/07/16 05:37:42;;;;;;;5.80;4.50;;;;;;;24.43;52.29;100048.86;107632;1256;59741;-80
2023/07/16 05:40:09;;;;;;;5.80;4.20;;;;;;;24.45;52.14;100050.28;105902;1254;60047;-79
2023/07/16 05:42:37;;;;;;;5.10;4.60;;;;;;;24.46;51.94;100050.41;106080;1256;71632;-81
2023/07/16 05:45:05;;;;;;;7.20;4.90;;;;;;;24.48;51.75;100052.61;106005;1258;69037;-81
2023/07/16 05:47:33;;;;;;;6.50;5.00;;;;;;;24.50;51.42;100057.26;106541;1256;72679;-82
2023/07/16 05:50:01;;;;;;;6.60;5.00;;;;;;;24.50;51.05;100058.13;106229;1261;59631;-82
2023/07/16 05:52:28;;;;;;;4.60;4.20;;;;;;;24.52;50.66;100060.89;106602;1255;60314;-82
2023/07/16 05:54:56;;;;;;;8.20;4.80;;;;;;;24.55;50.52;100064.09;108401;1254;73287;-78
2023/07/16 05:57:24;;;;;;;6.50;4.30;;;;;;;24.59;50.30;100063.48;108299;1258;68715;-77
2023/07/16 05:59:51;;;;;;;5.20;4.60;;;;;;;24.64;49.89;100061.15;106003;1259;72897;-78
2023/07/16 06:02:22;;;;;;;4.80;4.20;;;;;;;24.67;49.44;100062.21;105639;1256;59739;-77
2023/07/16 06:04:49;;;;;;;4.30;3.90;;;;;;;24.69;48.32;100056.44;105450;1259;59528;-72
2023/07/16 06:07:17;;;;;;;4.70;3.80;;;;;;;24.68;47.77;100053.48;105439;1256;72379;-74
2023/07/16 06:09:45;;;;;;;3.90;3.30;;;;;;;24.70;47.57;100054.91;105458;1258;70442;-74
2023/07/16 06:12:12;;;;;;;4.30;3.90;;;;;;;24.73;47.11;100052.67;105424;1256;72932;-75
2023/07/16 06:14:40;;;;;;;6.00;3.50;;;;;;;24.77;46.46;100051.95;105421;1256;60158;-73
2023/07/16 06:17:07;;;;;;;6.10;3.10;;;;;;;24.76;46.40;100053.95;105358;1255;59858;-75
2023/07/16 06:19:34;;;;;;;5.20;3.10;;;;;;;24.75;46.37;100052.97;105680;1256;73112;-74
2023/07/16 06:22:02;;;;;;;4.40;3.40;;;;;;;24.75;46.18;100051.66;106165;1256;70719;-77
2023/07/16 06:24:30;;;;;;;3.90;2.90;;;;;;;24.78;46.07;100056.30;107012;1255;72285;-74
2023/07/16 06:26:57;;;;;;;4.30;3.60;;;;;;;24.82;45.76;100054.35;107004;1256;60045;-75
2023/07/16 06:29:25;;;;;;;5.00;3.00;;;;;;;24.85;45.62;100051.98;105535;1256;59713;-72
2023/07/16 06:31:58;;;;;;;3.60;2.90;;;;;;;24.87;45.29;100050.86;105454;1259;73069;-72
2023/07/16 06:34:26;;;;;;;3.10;2.80;;;;;;;24.87;45.37;100053.10;105555;1258;70474;-76
2023/07/16 06:36:53;;;;;;;4.50;2.80;;;;;;;24.90;45.23;100052.69;105543;1257;71720;-74
2023/07/16 06:39:21;;;;;;;3.30;2.70;;;;;;;24.93;45.35;100049.67;105480;1256;60241;-72
2023/07/16 06:41:48;;;;;;;4.00;3.10;;;;;;;24.98;45.59;100047.89;105497;1259;59685;-74
2023/07/16 06:44:16;;;;;;;5.50;3.30;;;;;;;25.07;45.64;100051.73;105611;1259;71122;-75
2023/07/16 06:46:44;;;;;;;5.10;3.20;;;;;;;25.12;45.59;100053.73;105458;1260;72217;-74
2023/07/16 06:49:11;;;;;;;5.20;3.10;;;;;;;25.16;45.60;100048.43;105487;1259;71156;-75
2023/07/16 06:51:39;;;;;;;5.40;3.00;;;;;;;25.18;45.53;100053.23;105988;1257;60139;-73
2023/07/16 06:54:07;;;;;;;3.80;2.90;;;;;;;25.21;45.56;100049.26;106386;1254;59626;-73
2023/07/16 06:56:35;;;;;;;3.40;2.70;;;;;;;25.27;45.40;100051.30;106569;1256;71741;-76
2023/07/16 06:59:02;;;;;;;5.00;3.20;;;;;;;25.33;45.17;100053.69;105724;1256;69986;-74
2023/07/16 07:01:29;;;;;;;4.30;3.00;;;;;;;25.38;44.93;100057.75;105339;1261;72872;-73
2023/07/16 07:03:57;;;;;;;6.00;3.50;;;;;;;25.43;44.98;100056.66;105413;1257;59607;-74
2023/07/16 07:06:25;;;;;;;3.40;2.90;;;;;;;25.47;44.47;100052.52;105427;1259;60061;-73
2023/07/16 07:08:53;;;;;;;4.10;2.80;;;;;;;25.48;44.07;100050.34;105367;1256;71324;-74
2023/07/16 07:11:20;;;;;;;4.50;3.30;;;;;;;25.47;44.03;100054.02;105445;1258;69298;-74
2023/07/16 07:13:48;;;;;;;4.00;3.10;;;;;;;25.48;44.28;100054.09;105600;1258;71439;-74
2023/07/16 07:16:15;;;;;;;4.50;3.00;;;;;;;25.52;44.11;100054.84;105611;1258;60012;-71
2023/07/16 07:18:43;;;;;;;3.30;3.00;;;;;;;25.56;44.34;100045.13;105839;1260;59251;-69
2023/07/16 07:21:11;;;;;;;4.60;3.00;;;;;;;25.60;44.11;100050.27;105725;1259;72988;-74
2023/07/16 07:23:38;;;;;;;3.20;2.90;;;;;;;25.61;43.09;100049.30;106126;1258;71072;-73
2023/07/16 07:26:06;;;;;;;4.00;3.00;;;;;;;25.59;43.18;100047.15;106795;1259;73587;-72
2023/07/16 07:28:33;;;;;;;2.90;2.50;;;;;;;25.59;43.20;100048.04;106849;1258;59525;-73
2023/07/16 07:31:01;;;;;;;2.80;2.60;;;;;;;25.63;42.91;100049.58;105530;1259;60124;-75
2023/07/16 07:33:28;;;;;;;3.60;2.80;;;;;;;25.63;42.44;100049.05;105430;1260;71071;-73
2023/07/16 07:35:56;;;;;;;2.90;2.60;;;;;;;25.60;42.46;100047.87;105598;1261;68885;-75
2023/07/16 07:38:24;;;;;;;6.40;3.20;;;;;;;25.61;42.56;100047.55;105487;1259;72629;-75
2023/07/16 07:40:51;;;;;;;5.20;2.60;;;;;;;25.63;42.54;100050.52;105540;1258;60544;-74
2023/07/16 07:43:19;;;;;;;4.40;3.50;;;;;;;25.64;42.37;100047.53;105628;1260;60449;-75
2023/07/16 07:45:46;;;;;;;3.80;2.70;;;;;;;25.58;42.58;100047.77;105896;1256;73885;-75
2023/07/16 07:48:14;;;;;;;4.00;3.30;;;;;;;25.53;42.67;100050.48;105551;1260;68734;-77
2023/07/16 07:50:41;;;;;;;4.00;3.30;;;;;;;25.50;42.84;100048.51;105787;1259;72790;-78
2023/07/16 07:53:09;;;;;;;4.90;3.10;;;;;;;25.53;43.30;100048.73;106122;1254;61582;-76
2023/07/16 07:55:36;;;;;;;5.40;3.00;;;;;;;25.60;43.04;100047.55;107598;1260;60402;-75
2023/07/16 07:58:04;;;;;;;3.40;2.40;;;;;;;25.67;43.39;100044.12;108425;1254;72687;-76
2023/07/16 08:00:31;;;;;;;5.00;3.10;;;;;;;25.79;43.74;100044.91;106851;1257;68739;-76
2023/07/16 08:02:59;;;;;;;3.40;3.10;;;;;;;25.89;43.13;100047.93;106273;1259;71073;-75
2023/07/16 08:05:27;;;;;;;4.00;3.60;;;;;;;25.95;42.82;100046.04;106093;1262;60459;-74
2023/07/16 08:07:55;;;;;;;5.50;2.80;;;;;;;25.98;42.81;100048.77;107220;1254;59015;-76
2023/07/16 08:10:22;;;;;;;5.40;3.90;;;;;;;26.01;42.49;100046.66;108880;1253;72839;-75
2023/07/16 08:12:50;;;;;;;3.20;2.90;;;;;;;26.06;42.59;100040.92;109019;1254;68857;-74
2023/07/16 08:15:18;;;;;;;3.80;3.40;;;;;;;26.16;42.44;100033.68;108927;1256;71393;-76
2023/07/16 08:17:45;;;;;;;5.60;3.00;;;;;;;26.27;42.17;100029.66;108999;1254;58853;-77
2023/07/16 08:20:13;;;;;;;3.80;2.90;;;;;;;26.42;42.20;100024.86;109033;1254;58832;-76
2023/07/16 08:22:41;;;;;;;3.70;3.20;;;;;;;26.60;42.31;100022.39;109020;1254;73947;-80
2023/07/16 08:25:09;;;;;;;4.50;3.40;;;;;;;26.80;42.28;100016.35;107894;1254;69982;-75
2023/07/16 08:27:37;;;;;;;3.50;3.20;;;;;;;27.00;42.06;100020.75;108620;1255;72213;-78
2023/07/16 08:30:06;;;;;;;3.30;3.00;;;;;;;27.16;41.72;100012.85;108109;1261;60289;-75
2023/07/16 08:32:33;;;;;;;3.50;3.20;;;;;;;27.33;41.94;100006.52;108510;1257;59261;-73
2023/07/16 08:35:01;;;;;;;3.80;2.80;;;;;;;27.53;41.45;100006.18;107160;1257;72653;-73
2023/07/16 08:37:28;;;;;;;3.00;2.70;;;;;;;27.72;40.89;100006.38;106161;1260;69184;-75
2023/07/16 08:39:56;;;;;;;4.20;2.90;;;;;;;27.90;40.63;100006.14;106249;1259;71198;-78
2023/07/16 08:42:23;;;;;;;3.70;2.90;;;;;;;28.08;40.93;100004.08;106027;1260;60412;-75
2023/07/16 08:44:52;;;;;;;5.20;3.30;;;;;;;28.27;40.63;100008.54;105841;1258;60520;-76
2023/07/16 08:47:19;;;;;;;4.60;3.80;;;;;;;28.39;40.03;100008.82;105663;1259;73895;-76
2023/07/16 08:49:56;;;;;;;4.10;2.90;;;;;;;28.40;39.36;100002.42;105367;1254;70083;-75
2023/07/16 08:52:24;;;;;;;3.10;2.80;;;;;;;28.35;39.63;100005.07;105472;1262;72610;-73
2023/07/16 08:54:51;;;;;;;4.80;3.10;;;;;;;28.38;39.89;99998.83;106904;1254;60440;-75
2023/07/16 08:57:19;;;;;;;3.30;2.50;;;;;;;28.52;39.91;100001.02;108146;1260;60565;-74
2023/07/16 08:59:50;;;;;;;4.30;2.90;;;;;;;28.69;40.09;100001.91;106057;1259;73952;-75
2023/07/16 09:02:19;;;;;;;3.90;2.70;;;;;;;28.81;39.99;99996.21;105364;1260;69945;-74
2023/07/16 09:04:48;;;;;;;5.90;3.20;;;;;;;28.86;39.73;99997.65;105680;1258;71271;-74
2023/07/16 09:07:15;;;;;;;5.60;3.30;;;;;;;28.92;39.86;99991.72;105389;1254;61292;-73
2023/07/16 09:09:43;;;;;;;4.60;3.00;;;;;;;29.08;40.09;99992.20;105372;1259;60447;-75
2023/07/16 09:12:13;;;;;;;4.90;3.20;;;;;;;29.28;39.53;99991.69;105376;1254;72656;-74
2023/07/16 09:14:41;;;;;;;3.40;3.00;;;;;;;29.51;39.67;99987.77;105453;1259;69113;-79
2023/07/16 09:17:09;;;;;;;3.50;2.80;;;;;;;29.72;39.34;99985.92;105668;1258;71470;-75
2023/07/16 09:19:37;;;;;;;6.50;3.10;;;;;;;29.91;39.12;99988.52;105531;1260;60506;-74
2023/07/16 09:22:04;;;;;;;3.30;2.90;;;;;;;30.12;38.40;99989.32;105907;1254;62219;-77
2023/07/16 09:24:33;;;;;;;2.90;2.60;;;;;;;30.27;38.16;99990.51;107103;1254;73061;-75
2023/07/16 09:27:01;;;;;;;4.90;3.30;;;;;;;30.43;37.27;99983.53;106192;1262;69561;-73
2023/07/16 09:29:29;;;;;;;4.00;3.30;;;;;;;30.59;35.99;99986.61;106134;1259;72744;-74
2023/07/16 09:32:02;;;;;;;3.40;3.10;;;;;;;30.76;35.46;99983.06;105425;1260;60432;-76
2023/07/16 09:34:30;;;;;;;5.80;3.20;;;;;;;30.99;34.97;99983.73;105458;1261;60332;-76
2023/07/16 09:36:58;;;;;;;4.50;3.50;;;;;;;31.29;34.74;99983.67;105396;1259;74009;-73
2023/07/16 09:39:26;;;;;;;4.10;3.20;;;;;;;31.57;34.17;99974.21;105449;1260;69126;-73
2023/07/16 09:41:56;;;;;;;5.10;3.00;;;;;;;31.81;34.52;99975.96;105334;1260;70538;-72
2023/07/16 09:44:23;;;;;;;4.00;3.30;;;;;;;32.23;34.74;99978.59;105347;1260;60409;-73
2023/07/16 09:46:51;;;;;;;3.20;2.90;;;;;;;32.77;33.17;99977.43;105387;1257;60384;-75
2023/07/16 09:49:19;;;;;;;4.80;2.70;;;;;;;33.25;33.54;99972.39;105416;1254;73828;-74
2023/07/16 09:51:46;;;;;;;3.20;2.80;;;;;;;33.85;33.08;99972.13;105579;1260;68639;-72
2023/07/16 09:54:17;;;;;;;3.30;3.00;;;;;;;34.45;32.46;99968.16;105636;1260;71428;-74
2023/07/16 09:56:47;;;;;;;3.80;2.60;;;;;;;34.99;32.12;99963.05;106279;1254;60639;-73
2023/07/16 09:59:16;;;;;;;3.90;3.10;;;;;;;35.53;31.34;99957.66;107100;1260;62180;-75
2023/07/16 10:01:43;;;;;;;5.40;2.90;;;;;;;35.90;31.28;99955.46;105636;1261;65022;-75
2023/07/16 10:04:15;;;;;;;4.90;3.00;;;;;;;36.23;30.41;99954.73;105890;1261;60553;-74
2023/07/16 10:06:54;;;;;;;3.10;2.70;;;;;;;36.45;29.74;99956.96;105486;1255;62559;-75
2023/07/16 10:09:38;;;;;;;4.00;3.30;;;;;;;36.54;29.68;99960.93;105366;1257;61039;-74
2023/07/16 10:12:19;;;;;;;4.30;3.00;;;;;;;36.44;29.56;99958.48;105617;1259;60486;-77
2023/07/16 10:14:53;;;;;;;3.50;2.80;;;;;;;36.16;29.76;99959.98;105575;1255;63920;-76
2023/07/16 10:17:21;;;;;;;3.70;2.70;;;;;;;35.79;30.10;99959.88;105811;1259;61402;-73
2023/07/16 10:19:49;;;;;;;5.00;2.80;;;;;;;35.50;30.25;99957.82;105493;1257;63774;-74
2023/07/16 10:22:31;;;;;;;4.30;3.00;;;;;;;35.21;30.21;99956.77;105808;1260;60748;-74
2023/07/16 10:24:59;;;;;;;3.50;2.70;;;;;;;35.15;30.97;99954.36;106047;1259;61060;-76
2023/07/16 10:27:28;;;;;;;4.60;2.90;;;;;;;35.33;30.87;99950.90;106951;1257;65085;-75
2023/07/16 10:29:56;;;;;;;3.20;2.90;;;;;;;35.49;30.51;99945.66;107375;1260;60454;-77
2023/07/16 10:32:26;;;;;;;3.90;3.10;;;;;;;35.62;30.31;99938.00;105712;1259;64329;-76
2023/07/16 10:34:54;;;;;;;3.50;3.20;;;;;;;35.69;30.09;99933.27;105504;1260;60402;-74
2023/07/16 10:37:21;;;;;;;4.20;3.40;;;;;;;35.86;29.87;99933.77;105813;1259;60409;-77
2023/07/16 10:39:50;;;;;;;4.40;3.00;;;;;;;36.14;29.80;99933.77;105704;1254;67181;-75
2023/07/16 10:42:17;;;;;;;5.70;3.80;;;;;;;36.32;29.59;99933.70;105436;1254;61457;-75
2023/07/16 10:44:45;;;;;;;3.30;3.00;;;;;;;36.32;29.19;99931.89;105537;1264;63759;-78
2023/07/16 10:47:21;;;;;;;3.30;3.00;;;;;;;36.28;29.05;99929.19;105691;1259;60539;-76
2023/07/16 10:49:49;;;;;;;3.90;3.60;;;;;;;36.32;28.84;99926.64;105863;1257;60491;-77
2023/07/16 10:52:16;;;;;;;3.90;3.20;;;;;;;36.36;28.92;99929.41;105719;1257;63837;-76
2023/07/16 10:54:44;;;;;;;4.10;3.70;;;;;;;36.54;28.97;99927.41;106436;1254;61564;-74
2023/07/16 10:57:12;;;;;;;3.90;3.40;;;;;;;36.88;29.23;99925.02;107149;1256;63899;-74
2023/07/16 10:59:40;;;;;;;4.20;3.10;;;;;;;37.25;29.17;99924.13;106813;1258;60534;-77
2023/07/16 11:02:14;;;;;;;4.40;3.00;;;;;;;37.63;28.96;99926.42;105762;1259;60483;-76
2023/07/16 11:04:42;;;;;;;3.70;2.70;;;;;;;37.95;28.27;99921.77;106057;1254;64933;-75
2023/07/16 11:07:11;;;;;;;4.20;3.40;;;;;;;38.15;28.72;99914.97;105823;1255;61760;-76
2023/07/16 11:09:43;;;;;;;4.10;3.40;;;;;;;38.12;28.48;99914.23;105552;1260;64020;-78
2023/07/16 11:12:12;;;;;;;3.90;3.60;;;;;;;37.93;28.18;99920.58;105747;1259;60389;-77
2023/07/16 11:15:00;;;;;;;3.10;2.80;;;;;;;37.63;28.41;99927.00;105552;1258;60270;-75
2023/07/16 11:17:27;;;;;;;4.70;3.20;;;;;;;37.18;28.97;99928.30;105592;1258;64488;-78
2023/07/16 11:19:55;;;;;;;4.30;3.30;;;;;;;36.78;29.51;99927.11;105483;1255;61312;-76
2023/07/16 11:22:29;;;;;;;4.30;3.60;;;;;;;36.45;29.57;99928.00;105811;1256;62433;-75
2023/07/16 11:24:56;;;;;;;4.90;3.50;;;;;;;36.06;29.96;99926.05;107796;1254;60297;-76
2023/07/16 11:27:31;;;;;;;4.30;3.90;;;;;;;35.70;30.98;99922.42;107920;1254;60313;-77